Terminal Aerodrome Forecast
Issued by NWS Quad Cities IA IL

Home | Current Version | Previous Version | Text Only | Print | Product List | Glossary On
Versions: 1 2 3 4 5 6 7 8 9 10 11 12 13 14 15 16 17 18 19 20 21 22 23 24
002
FTUS43 KDVN 272320
TAFMLI
TAF
KMLI 272320Z 2800/2824 24005KT P6SM SCT025
     FM280900 VRB03KT 3SM BR SCT009
     FM281500 13007KT P6SM SCT025=

USA.gov is the U.S. government's official web portal to all federal, state and local government web resources and services.